Time;durP1;ratioP1;P1;durP2;ratioP2;P2;SDS_P1;SDS_P2;PMS_P1;PMS_P2;Temp;Humidity;BMP_temperature;BMP_pressure;BME280_temperature;BME280_humidity;BME280_pressure;Samples;Min_cycle;Max_cycle;Signal;HPM_P1;HPM_P2
2022/12/21 00:00:50;;;;;;;16.10;7.60;;;;;;;3.59;100.00;96248.72;5055951;28;20196;-71
2022/12/21 00:03:17;;;;;;;20.13;7.83;;;;;;;3.56;100.00;96243.78;5056789;28;20204;-71
2022/12/21 00:05:43;;;;;;;18.70;7.47;;;;;;;3.59;100.00;96256.53;5056150;28;20200;-71
2022/12/21 00:08:10;;;;;;;18.63;8.33;;;;;;;3.62;100.00;96266.72;5055340;28;20228;-71
2022/12/21 00:10:36;;;;;;;17.43;7.07;;;;;;;3.68;100.00;96273.00;5056188;28;20197;-71
2022/12/21 00:13:03;;;;;;;19.93;7.87;;;;;;;3.83;100.00;96258.63;5056321;28;20217;-71
2022/12/21 00:15:30;;;;;;;15.00;7.87;;;;;;;3.70;100.00;96263.28;5055331;28;20211;-71
2022/12/21 00:17:58;;;;;;;21.40;7.83;;;;;;;3.80;100.00;96253.69;5056405;28;20230;-71
2022/12/21 00:20:24;;;;;;;20.43;7.67;;;;;;;3.63;100.00;96263.97;5058243;28;20204;-71
2022/12/21 00:22:51;;;;;;;18.93;8.23;;;;;;;3.63;100.00;96267.38;5060348;28;20258;-71
2022/12/21 00:25:17;;;;;;;19.70;8.30;;;;;;;3.64;100.00;96263.81;5057858;28;20207;-70
2022/12/21 00:27:44;;;;;;;23.23;8.10;;;;;;;3.65;100.00;96256.81;5060496;28;20227;-71
2022/12/21 00:30:11;;;;;;;15.33;7.03;;;;;;;3.58;100.00;96257.47;5059817;28;20204;-71
2022/12/21 00:32:37;;;;;;;22.97;8.37;;;;;;;3.52;100.00;96248.44;5059375;28;20220;-71
2022/12/21 00:35:06;;;;;;;22.10;7.97;;;;;;;3.57;100.00;96245.44;5059130;28;21016;-71
2022/12/21 00:37:32;;;;;;;24.03;8.00;;;;;;;3.47;100.00;96245.41;5061605;28;20605;-71
2022/12/21 00:39:59;;;;;;;17.97;7.77;;;;;;;3.36;100.00;96248.13;5061971;28;20917;-72
2022/12/21 00:42:25;;;;;;;21.77;8.33;;;;;;;3.38;100.00;96250.59;5062366;28;20588;-71
2022/12/21 00:44:52;;;;;;;17.00;7.60;;;;;;;3.34;100.00;96242.22;5062059;28;20654;-71
2022/12/21 00:47:18;;;;;;;27.60;8.13;;;;;;;3.26;100.00;96257.69;5062989;28;20668;-71
2022/12/21 00:49:45;;;;;;;19.13;8.10;;;;;;;3.35;100.00;96261.28;5063071;28;20747;-72
2022/12/21 00:52:13;;;;;;;19.13;7.83;;;;;;;3.49;100.00;96268.72;5063067;28;20845;-72
2022/12/21 00:54:39;;;;;;;16.70;6.27;;;;;;;3.52;100.00;96271.06;5062753;28;20200;-71
2022/12/21 00:57:06;;;;;;;18.83;7.73;;;;;;;3.57;100.00;96272.31;5063041;28;20214;-71
2022/12/21 00:59:32;;;;;;;15.07;8.07;;;;;;;3.55;100.00;96269.00;5063601;28;20256;-71
2022/12/21 01:01:59;;;;;;;17.47;8.30;;;;;;;3.57;100.00;96266.28;5067877;28;20204;-71
2022/12/21 01:04:25;;;;;;;17.07;7.90;;;;;;;3.67;100.00;96271.34;5062780;28;20679;-72
2022/12/21 01:06:51;;;;;;;21.97;8.20;;;;;;;3.66;100.00;96271.50;5063018;28;20965;-72
2022/12/21 01:09:19;;;;;;;15.00;7.40;;;;;;;3.75;100.00;96271.50;5062627;28;20622;-72
2022/12/21 01:11:46;;;;;;;20.57;7.77;;;;;;;3.57;100.00;96274.09;5062001;28;20208;-72
2022/12/21 01:14:12;;;;;;;15.80;7.60;;;;;;;3.51;100.00;96283.25;5060484;28;20227;-72
2022/12/21 01:16:39;;;;;;;20.23;7.90;;;;;;;3.52;100.00;96294.50;5061823;28;20676;-72
2022/12/21 01:19:06;;;;;;;19.47;8.00;;;;;;;3.54;100.00;96288.22;5061620;28;20262;-72
2022/12/21 01:21:33;;;;;;;14.00;6.80;;;;;;;3.52;100.00;96284.09;5061180;28;20210;-72
2022/12/21 01:24:00;;;;;;;18.20;8.13;;;;;;;3.47;100.00;96279.25;5059537;28;20204;-72
2022/12/21 01:26:29;;;;;;;15.40;6.87;;;;;;;3.56;100.00;96283.69;5060069;28;20215;-72
2022/12/21 01:28:55;;;;;;;16.27;7.87;;;;;;;3.51;100.00;96282.44;5060078;28;20231;-72
2022/12/21 01:31:22;;;;;;;29.23;7.67;;;;;;;3.55;100.00;96279.41;5058774;28;20196;-72
2022/12/21 01:33:49;;;;;;;17.07;7.00;;;;;;;3.56;100.00;96281.06;5059457;28;20216;-72
2022/12/21 01:36:17;;;;;;;21.47;6.90;;;;;;;3.63;100.00;96285.63;5060542;28;20204;-72
2022/12/21 01:38:45;;;;;;;12.97;6.00;;;;;;;3.61;100.00;96289.31;5058844;28;20227;-72
2022/12/21 01:41:13;;;;;;;21.27;6.80;;;;;;;3.66;100.00;96280.13;5058560;28;20211;-72
2022/12/21 01:43:45;;;;;;;22.80;7.20;;;;;;;3.76;100.00;96290.59;5058908;28;20577;-72
2022/12/21 01:46:16;;;;;;;30.37;6.90;;;;;;;3.82;100.00;96290.06;5059031;28;21174;-72
2022/12/21 01:48:48;;;;;;;15.73;6.23;;;;;;;3.85;100.00;96287.97;5058941;28;21135;-72
2022/12/21 01:51:16;;;;;;;14.87;5.60;;;;;;;3.82;100.00;96290.06;5058550;28;20200;-72
2022/12/21 01:53:46;;;;;;;12.40;5.90;;;;;;;3.88;100.00;96282.53;5058233;28;20786;-72
2022/12/21 01:56:18;;;;;;;16.57;6.33;;;;;;;3.86;100.00;96278.41;5058472;28;20605;-72
2022/12/21 01:58:46;;;;;;;23.33;7.03;;;;;;;3.78;100.00;96286.88;5058805;28;20712;-72
2022/12/21 02:01:12;;;;;;;11.87;5.43;;;;;;;3.72;100.00;96279.59;5058714;28;20197;-72
2022/12/21 02:03:44;;;;;;;12.33;5.30;;;;;;;3.85;100.00;96264.53;5058038;28;20208;-72
2022/12/21 02:06:14;;;;;;;12.43;5.43;;;;;;;3.84;100.00;96268.09;5058421;28;20201;-72
2022/12/21 02:08:41;;;;;;;14.03;5.93;;;;;;;3.84;100.00;96269.88;5058439;28;20228;-72
2022/12/21 02:11:09;;;;;;;16.73;5.77;;;;;;;3.84;100.00;96268.09;5057806;28;20211;-72
2022/12/21 02:13:36;;;;;;;15.23;5.87;;;;;;;3.79;100.00;96252.06;5058065;28;20225;-72
2022/12/21 02:16:19;;;;;;;9.33;5.20;;;;;;;3.91;100.00;96261.38;5058821;28;20231;-72
2022/12/21 02:19:13;;;;;;;15.67;5.13;;;;;;;3.87;100.00;96257.41;5058310;28;20216;-72
2022/12/21 02:21:45;;;;;;;8.43;5.17;;;;;;;3.84;100.00;96255.06;5058429;28;20231;-72
2022/12/21 02:24:36;;;;;;;16.10;6.10;;;;;;;3.79;100.00;96254.66;5057852;28;20193;-72
2022/12/21 02:27:32;;;;;;;10.20;4.53;;;;;;;3.89;100.00;96260.69;5058004;28;20193;-72
2022/12/21 02:30:13;;;;;;;10.20;4.83;;;;;;;3.93;100.00;96249.03;5051388;28;20201;-72
2022/12/21 02:32:52;;;;;;;14.07;5.33;;;;;;;3.89;100.00;96247.66;5058114;28;20741;-72
2022/12/21 02:35:31;;;;;;;14.97;6.10;;;;;;;3.85;100.00;96248.06;5057423;28;20204;-72
2022/12/21 02:38:08;;;;;;;15.77;6.07;;;;;;;3.85;100.00;96246.28;5057549;28;20231;-72
2022/12/21 02:40:44;;;;;;;13.53;5.50;;;;;;;3.89;100.00;96241.63;5057766;28;20934;-72
2022/12/21 02:46:11;;;;;;;18.30;5.47;;;;;;;3.82;100.00;96243.16;5056913;28;20211;-72
2022/12/21 02:48:47;;;;;;;13.37;5.13;;;;;;;3.85;100.00;96241.06;5057196;28;20227;-72
2022/12/21 02:51:18;;;;;;;15.73;5.33;;;;;;;3.88;100.00;96246.03;5057414;28;20539;-72
2022/12/21 02:53:46;;;;;;;11.20;5.43;;;;;;;3.85;100.00;96243.69;5057119;28;20637;-72
2022/12/21 02:56:15;;;;;;;16.80;5.73;;;;;;;3.93;100.00;96243.00;5057368;28;20204;-72
2022/12/21 02:58:41;;;;;;;14.93;4.93;;;;;;;3.89;100.00;96245.03;5056722;28;20267;-72
2022/12/21 03:01:18;;;;;;;15.90;5.43;;;;;;;4.06;100.00;96249.59;5056770;28;20196;-72
2022/12/21 03:04:04;;;;;;;12.23;5.10;;;;;;;4.16;100.00;96260.81;5056548;28;20239;-72
2022/12/21 03:06:58;;;;;;;13.43;5.73;;;;;;;4.19;100.00;96255.34;5057286;28;20690;-72
2022/12/21 03:09:32;;;;;;;15.80;5.37;;;;;;;4.22;100.00;96247.25;5056992;28;20220;-72
2022/12/21 03:12:04;;;;;;;12.37;5.10;;;;;;;4.25;100.00;96254.78;5057642;28;20207;-72
2022/12/21 03:14:44;;;;;;;15.10;6.33;;;;;;;4.31;100.00;96244.63;5056639;28;20712;-72
2022/12/21 03:17:20;;;;;;;12.77;5.53;;;;;;;4.31;100.00;96234.19;5056235;28;20224;-72
2022/12/21 03:19:56;;;;;;;10.73;5.57;;;;;;;4.36;100.00;96236.38;5056808;28;20207;-72
2022/12/21 03:22:32;;;;;;;12.67;5.97;;;;;;;4.31;100.00;96228.16;5056377;28;20219;-72
2022/12/21 03:25:06;;;;;;;11.20;5.57;;;;;;;4.28;100.00;96215.41;5055705;28;20204;-72
2022/12/21 03:27:36;;;;;;;12.30;5.53;;;;;;;4.28;100.00;96223.22;5055804;28;20223;-71
2022/12/21 03:30:07;;;;;;;17.70;5.97;;;;;;;4.33;100.00;96221.84;5055864;28;20665;-71
2022/12/21 03:32:40;;;;;;;10.60;5.60;;;;;;;4.33;100.00;96219.22;5054987;28;20903;-72
2022/12/21 03:35:14;;;;;;;11.07;5.53;;;;;;;4.39;100.00;96223.06;5055492;28;20223;-72
2022/12/21 03:37:43;;;;;;;10.10;5.60;;;;;;;4.37;100.00;96212.75;5056032;28;20250;-72
2022/12/21 03:40:14;;;;;;;9.67;5.10;;;;;;;4.42;100.00;96212.38;5057377;28;20285;-71
2022/12/21 03:42:46;;;;;;;13.47;5.30;;;;;;;4.42;100.00;96212.38;5057456;28;20216;-71
2022/12/21 03:45:20;;;;;;;11.50;6.20;;;;;;;4.44;100.00;96213.88;5055829;28;20627;-71
2022/12/21 03:47:51;;;;;;;13.73;6.57;;;;;;;4.50;100.00;96213.28;5057313;28;20594;-71
2022/12/21 03:50:24;;;;;;;21.17;7.03;;;;;;;4.62;100.00;96220.00;5056873;28;20219;-71
2022/12/21 03:52:56;;;;;;;16.30;6.20;;;;;;;4.63;100.00;96218.19;5056417;28;20569;-71
2022/12/21 03:55:28;;;;;;;15.33;6.67;;;;;;;4.63;100.00;96203.34;5057160;28;20211;-71
2022/12/21 03:57:56;;;;;;;15.40;7.47;;;;;;;4.66;100.00;96208.31;5060789;28;20224;-71
2022/12/21 04:00:23;;;;;;;17.87;6.40;;;;;;;4.62;100.00;96211.31;5060488;28;20513;-71
2022/12/21 04:02:56;;;;;;;11.67;6.40;;;;;;;4.72;100.00;96205.13;5060789;28;20566;-71
2022/12/21 04:05:30;;;;;;;20.10;6.57;;;;;;;4.70;100.00;96203.59;5060122;28;20204;-71
2022/12/21 04:07:57;;;;;;;11.97;5.77;;;;;;;4.62;100.00;96193.06;5060094;28;20235;-71
2022/12/21 04:10:25;;;;;;;15.93;6.93;;;;;;;4.63;100.00;96189.50;5060742;28;20211;-73
2022/12/21 04:12:51;;;;;;;16.27;6.63;;;;;;;4.60;100.00;96187.19;5059526;28;20678;-73
2022/12/21 04:15:20;;;;;;;16.33;6.90;;;;;;;4.65;100.00;96183.16;5058777;28;20203;-72
2022/12/21 04:17:48;;;;;;;13.87;6.03;;;;;;;4.64;100.00;96194.56;5059638;28;20227;-72
2022/12/21 04:20:16;;;;;;;13.43;6.23;;;;;;;4.72;100.00;96199.09;5059344;28;20207;-72
2022/12/21 04:28:23;;;;;;;15.03;5.50;;;;;;;4.89;100.00;96184.31;5059375;28;20231;-72
2022/12/21 04:30:50;;;;;;;12.80;5.60;;;;;;;4.79;100.00;96182.72;5059520;28;20555;-72
2022/12/21 04:33:19;;;;;;;16.43;6.23;;;;;;;4.85;100.00;96179.53;5059124;28;20230;-72
2022/12/21 04:38:34;;;;;;;11.93;5.47;;;;;;;4.92;100.00;96180.59;5058757;28;20227;-72
2022/12/21 04:41:00;;;;;;;20.50;5.90;;;;;;;4.83;100.00;96184.88;5058854;28;20197;-72
2022/12/21 04:43:27;;;;;;;13.40;5.87;;;;;;;4.88;100.00;96185.28;5059256;28;20203;-73
2022/12/21 04:46:01;;;;;;;16.80;5.57;;;;;;;4.95;100.00;96188.97;5058950;28;20223;-72
2022/12/21 04:48:27;;;;;;;17.40;5.70;;;;;;;4.85;100.00;96193.41;5058670;28;20217;-72
2022/12/21 04:50:54;;;;;;;12.23;6.27;;;;;;;4.84;100.00;96191.75;5060142;28;20204;-72
2022/12/21 04:53:21;;;;;;;22.57;5.77;;;;;;;4.84;100.00;96198.78;5058716;28;20235;-72
2022/12/21 04:55:49;;;;;;;19.27;6.10;;;;;;;4.86;100.00;96197.66;5058321;28;20201;-73
2022/12/21 04:58:16;;;;;;;22.57;6.73;;;;;;;4.82;100.00;96201.53;5059191;28;20220;-72
2022/12/21 05:00:43;;;;;;;9.97;5.03;;;;;;;4.80;100.00;96201.78;5059400;28;20205;-72
2022/12/21 05:03:09;;;;;;;18.83;5.57;;;;;;;4.80;100.00;96196.56;5058072;28;20200;-72
2022/12/21 05:05:36;;;;;;;14.80;5.43;;;;;;;4.79;100.00;96195.75;5057607;28;20201;-73
2022/12/21 05:08:02;;;;;;;17.27;6.97;;;;;;;4.81;100.00;96195.63;5057201;28;20845;-73
2022/12/21 05:10:29;;;;;;;15.03;6.60;;;;;;;4.81;100.00;96200.84;5058491;28;20640;-72
2022/12/21 05:12:57;;;;;;;16.77;7.97;;;;;;;4.77;100.00;96205.50;5058833;28;20263;-72
2022/12/21 05:15:23;;;;;;;61.00;19.90;;;;;;;4.68;100.00;96208.97;5057895;28;20231;-73
2022/12/21 05:17:50;;;;;;;140.83;43.43;;;;;;;4.60;100.00;96208.06;5057925;28;20223;-72
2022/12/21 05:20:16;;;;;;;38.90;14.37;;;;;;;4.57;100.00;96208.31;5058599;28;20208;-72
2022/12/21 05:22:46;;;;;;;33.23;12.13;;;;;;;4.58;100.00;96209.97;5058882;28;20209;-72
2022/12/21 05:25:12;;;;;;;19.23;7.07;;;;;;;4.48;100.00;96217.84;5057651;28;20299;-72
2022/12/21 05:27:39;;;;;;;18.43;5.87;;;;;;;4.49;100.00;96210.81;5057860;28;20251;-72
2022/12/21 05:30:08;;;;;;;18.50;6.03;;;;;;;4.52;100.00;96206.16;5058405;28;20669;-72
2022/12/21 05:32:35;;;;;;;13.47;5.50;;;;;;;4.41;100.00;96205.50;5057931;28;20234;-72
2022/12/21 05:35:01;;;;;;;14.23;5.97;;;;;;;4.38;100.00;96209.19;5057614;28;20708;-72
2022/12/21 05:37:28;;;;;;;15.23;5.97;;;;;;;4.39;100.00;96210.00;5058755;28;20636;-72
2022/12/21 05:39:55;;;;;;;14.27;5.63;;;;;;;4.36;100.00;96213.72;5057802;28;20204;-72
2022/12/21 05:42:21;;;;;;;12.50;5.47;;;;;;;4.35;100.00;96214.72;5057596;28;20563;-72
2022/12/21 05:44:48;;;;;;;14.43;6.27;;;;;;;4.36;100.00;96218.13;5061210;28;20200;-71
2022/12/21 05:47:15;;;;;;;16.13;5.47;;;;;;;4.41;100.00;96213.31;5057895;28;20679;-72
2022/12/21 05:49:42;;;;;;;13.67;5.73;;;;;;;4.33;100.00;96207.97;5058159;28;20201;-72
2022/12/21 05:52:08;;;;;;;13.80;5.30;;;;;;;4.33;100.00;96195.75;5058877;28;20196;-72
2022/12/21 05:54:35;;;;;;;16.47;5.67;;;;;;;4.31;100.00;96199.47;5057479;28;20224;-72
2022/12/21 05:57:02;;;;;;;25.77;8.60;;;;;;;4.29;100.00;96198.81;5057564;28;20459;-72
2022/12/21 05:59:28;;;;;;;22.03;10.83;;;;;;;4.22;100.00;96202.09;5058228;28;20576;-72
2022/12/21 06:01:55;;;;;;;16.90;8.73;;;;;;;4.12;100.00;96196.88;5058830;28;20207;-72
2022/12/21 06:04:22;;;;;;;20.47;8.00;;;;;;;4.11;100.00;96199.63;5056875;28;20549;-72
2022/12/21 06:06:49;;;;;;;23.57;11.27;;;;;;;4.08;100.00;96199.91;5057459;28;20204;-72
2022/12/21 06:09:15;;;;;;;28.37;11.37;;;;;;;4.09;100.00;96201.56;5057596;28;20220;-72
2022/12/21 06:11:42;;;;;;;29.37;10.23;;;;;;;4.10;100.00;96201.44;5057794;28;20196;-72
2022/12/21 06:14:08;;;;;;;22.83;9.00;;;;;;;4.11;100.00;96199.63;5056764;28;20228;-72
2022/12/21 06:16:35;;;;;;;23.30;8.37;;;;;;;4.06;100.00;96201.81;5058580;28;20219;-72
2022/12/21 06:19:01;;;;;;;36.03;12.20;;;;;;;4.10;100.00;96205.78;5057742;28;20239;-71
2022/12/21 06:21:29;;;;;;;31.30;10.77;;;;;;;4.15;100.00;96206.22;5057682;28;20243;-72
2022/12/21 06:23:55;;;;;;;27.87;9.23;;;;;;;4.08;100.00;96205.94;5057220;28;20197;-72
2022/12/21 06:26:22;;;;;;;23.27;8.13;;;;;;;4.11;100.00;96204.84;5057881;28;20201;-72
2022/12/21 06:28:49;;;;;;;15.87;6.60;;;;;;;4.11;100.00;96200.47;5057927;28;20216;-72
2022/12/21 06:31:16;;;;;;;17.27;7.30;;;;;;;4.08;100.00;96205.13;5058152;28;20681;-71
2022/12/21 06:33:43;;;;;;;21.20;7.60;;;;;;;4.02;100.00;96206.53;5056904;28;20203;-71
2022/12/21 06:36:10;;;;;;;15.23;6.33;;;;;;;4.05;100.00;96205.38;5057377;28;20669;-71
2022/12/21 06:38:39;;;;;;;20.53;7.37;;;;;;;4.08;100.00;96205.13;5057500;28;20220;-71
2022/12/21 06:41:07;;;;;;;20.67;7.10;;;;;;;4.07;100.00;96209.50;5058169;28;20208;-71
2022/12/21 06:43:36;;;;;;;20.83;8.10;;;;;;;4.06;100.00;96202.66;5057203;28;20201;-71
2022/12/21 06:46:06;;;;;;;18.83;7.33;;;;;;;4.08;100.00;96205.94;5057784;28;20219;-71
2022/12/21 06:48:34;;;;;;;17.60;7.50;;;;;;;4.06;100.00;96202.66;5057315;28;20727;-71
2022/12/21 06:51:02;;;;;;;23.00;8.63;;;;;;;4.09;100.00;96205.00;5057742;28;20207;-71
2022/12/21 06:53:31;;;;;;;18.00;7.60;;;;;;;4.10;100.00;96209.25;5056851;28;20204;-72
2022/12/21 06:56:03;;;;;;;15.67;7.23;;;;;;;4.10;100.00;96208.41;5056351;28;20944;-73
2022/12/21 06:58:31;;;;;;;17.30;8.30;;;;;;;4.04;100.00;96206.38;5057559;28;20224;-72
2022/12/21 07:01:03;;;;;;;28.57;9.20;;;;;;;4.01;100.00;96210.06;5057507;28;20208;-72
2022/12/21 07:03:29;;;;;;;17.53;8.07;;;;;;;3.84;100.00;96213.34;5056809;28;20197;-72
2022/12/21 07:05:56;;;;;;;18.23;7.93;;;;;;;3.83;100.00;96216.09;5056812;28;20196;-72
2022/12/21 07:08:22;;;;;;;16.20;7.67;;;;;;;3.87;100.00;96218.31;5057355;28;20884;-72
2022/12/21 07:10:49;;;;;;;21.67;7.93;;;;;;;3.94;100.00;96218.59;5056880;28;21114;-72
2022/12/21 07:13:17;;;;;;;20.50;8.03;;;;;;;4.03;100.00;96218.56;5057418;28;20577;-72
2022/12/21 07:15:43;;;;;;;20.80;7.57;;;;;;;3.98;100.00;96215.53;5056279;28;20237;-72
2022/12/21 07:18:10;;;;;;;20.57;7.60;;;;;;;3.99;100.00;96214.59;5056741;28;20224;-72
2022/12/21 07:20:36;;;;;;;22.10;7.87;;;;;;;3.98;100.00;96219.94;5057340;28;20204;-72
2022/12/21 07:23:02;;;;;;;25.50;8.60;;;;;;;4.03;100.00;96220.38;5057213;28;20208;-72
2022/12/21 07:25:29;;;;;;;16.17;7.23;;;;;;;4.02;100.00;96222.16;5056010;28;21112;-72
2022/12/21 07:27:56;;;;;;;18.20;7.00;;;;;;;4.10;100.00;96224.88;5057135;28;20520;-73
2022/12/21 07:30:24;;;;;;;20.67;7.53;;;;;;;4.18;100.00;96227.63;5056486;28;20665;-72
2022/12/21 07:32:53;;;;;;;14.03;6.57;;;;;;;4.16;100.00;96234.75;5056602;28;20200;-72
2022/12/21 07:35:19;;;;;;;20.03;7.27;;;;;;;4.20;100.00;96230.09;5055668;28;20224;-72
2022/12/21 07:37:46;;;;;;;20.17;8.30;;;;;;;4.22;100.00;96230.78;5057260;28;20224;-72
2022/12/21 07:40:13;;;;;;;19.30;8.87;;;;;;;4.25;100.00;96228.69;5056797;28;20230;-72
2022/12/21 07:42:41;;;;;;;19.57;9.43;;;;;;;4.24;100.00;96232.28;5057048;28;21257;-72
2022/12/21 07:45:09;;;;;;;15.93;8.13;;;;;;;4.26;100.00;96232.97;5056002;28;20203;-72
2022/12/21 07:47:36;;;;;;;27.20;9.17;;;;;;;4.33;100.00;96228.84;5056152;28;20231;-72
2022/12/21 07:50:03;;;;;;;32.50;13.07;;;;;;;4.28;100.00;96223.22;5057142;28;20197;-72
2022/12/21 07:52:30;;;;;;;76.07;19.73;;;;;;;4.35;100.00;96219.09;5057358;28;20243;-72
2022/12/21 07:54:57;;;;;;;28.40;12.90;;;;;;;4.35;100.00;96224.31;5055986;28;20220;-71
2022/12/21 07:57:24;;;;;;;57.30;20.03;;;;;;;4.44;100.00;96228.69;5056284;28;20207;-71
2022/12/21 07:59:51;;;;;;;40.10;15.30;;;;;;;4.61;100.00;96226.19;5057162;28;20205;-71
2022/12/21 08:02:17;;;;;;;21.07;9.57;;;;;;;4.86;100.00;96218.53;5056419;28;20204;-71
2022/12/21 08:04:45;;;;;;;24.80;7.33;;;;;;;5.16;100.00;96218.28;5056095;28;20203;-71
2022/12/21 08:07:11;;;;;;;15.87;6.23;;;;;;;5.31;100.00;96218.59;5055884;28;20216;-71
2022/12/21 08:09:38;;;;;;;17.87;6.73;;;;;;;5.52;100.00;96210.38;5056459;28;20197;-71
2022/12/21 08:12:05;;;;;;;14.73;6.47;;;;;;;5.56;100.00;96206.50;5056628;28;20631;-71
2022/12/21 08:14:31;;;;;;;11.23;5.43;;;;;;;5.63;100.00;96207.53;5055451;28;20231;-71
2022/12/21 08:16:59;;;;;;;18.70;6.23;;;;;;;5.74;100.00;96209.13;5056360;28;20212;-71
2022/12/21 08:19:26;;;;;;;12.60;5.50;;;;;;;6.02;100.00;96208.13;5056161;28;20704;-71
2022/12/21 08:21:54;;;;;;;19.83;6.20;;;;;;;6.06;100.00;96205.88;5056684;28;20205;-71
2022/12/21 08:24:20;;;;;;;25.40;7.93;;;;;;;6.04;100.00;96207.00;5055833;28;20685;-71
2022/12/21 08:26:47;;;;;;;19.83;7.07;;;;;;;6.21;100.00;96204.38;5056386;28;20223;-71
2022/12/21 08:29:14;;;;;;;16.17;5.73;;;;;;;6.32;100.00;96211.97;5056026;28;20220;-71
2022/12/21 08:31:41;;;;;;;15.40;5.23;;;;;;;6.20;100.00;96207.97;5056230;28;20232;-71
2022/12/21 08:34:08;;;;;;;8.57;4.33;;;;;;;6.34;100.00;96199.56;5055766;28;20200;-71
2022/12/21 08:36:34;;;;;;;11.43;5.10;;;;;;;6.36;100.00;96212.50;5056316;28;20212;-71
2022/12/21 08:39:02;;;;;;;9.47;5.13;;;;;;;6.43;100.00;96205.66;5056171;28;20220;-71
2022/12/21 08:41:28;;;;;;;11.00;4.77;;;;;;;6.38;100.00;96208.75;5058566;28;20215;-71
2022/12/21 08:43:55;;;;;;;9.00;3.90;;;;;;;6.33;100.00;96207.56;5059167;28;20196;-71
2022/12/21 08:46:22;;;;;;;16.50;3.70;;;;;;;6.44;100.00;96215.16;5059397;28;20250;-71
2022/12/21 08:48:49;;;;;;;8.80;4.23;;;;;;;6.58;100.00;96209.38;5059638;28;20217;-71
2022/12/21 08:51:16;;;;;;;10.53;3.63;;;;;;;6.64;100.00;96212.19;5059648;28;20354;-71
2022/12/21 08:53:42;;;;;;;12.87;3.87;;;;;;;6.55;100.00;96210.50;5059338;28;21047;-71
2022/12/21 08:56:10;;;;;;;9.20;4.43;;;;;;;6.69;100.00;96215.19;5059771;28;20224;-71
2022/12/21 08:58:37;;;;;;;12.50;4.03;;;;;;;6.54;100.00;96216.69;5059611;28;20611;-71
2022/12/21 09:01:03;;;;;;;11.83;4.20;;;;;;;6.56;100.00;96216.56;5059893;28;20196;-71
2022/12/21 09:03:30;;;;;;;5.17;3.00;;;;;;;6.63;100.00;96215.78;5060267;28;20571;-71
2022/12/21 09:06:02;;;;;;;9.23;3.73;;;;;;;6.64;100.00;96222.66;5059424;28;20204;-71
2022/12/21 09:08:29;;;;;;;7.63;3.70;;;;;;;6.65;100.00;96213.84;5059393;28;20232;-71
2022/12/21 09:11:00;;;;;;;9.87;3.20;;;;;;;6.75;100.00;96215.38;5060294;28;20697;-71
2022/12/21 09:13:29;;;;;;;11.53;3.93;;;;;;;6.70;100.00;96212.41;5059708;28;20220;-71
2022/12/21 09:15:55;;;;;;;12.57;4.57;;;;;;;6.64;100.00;96220.06;5059193;28;20240;-71
2022/12/21 09:18:22;;;;;;;7.53;2.70;;;;;;;6.74;100.00;96212.91;5058711;28;20243;-71
2022/12/21 09:20:48;;;;;;;12.43;3.33;;;;;;;6.87;100.00;96218.56;5059820;28;20205;-71
2022/12/21 09:23:15;;;;;;;9.33;3.40;;;;;;;6.85;100.00;96213.50;5058832;28;20223;-71
2022/12/21 09:25:42;;;;;;;8.07;3.50;;;;;;;6.92;100.00;96213.69;5058546;28;20196;-71
2022/12/21 09:28:09;;;;;;;10.40;3.27;;;;;;;6.92;100.00;96216.31;5059251;28;20244;-71
2022/12/21 09:30:37;;;;;;;7.83;3.50;;;;;;;7.09;100.00;96211.00;5059529;28;20200;-71
2022/12/21 09:33:03;;;;;;;12.60;3.03;;;;;;;7.07;100.00;96214.75;5059515;28;20227;-71
2022/12/21 09:35:30;;;;;;;9.47;3.60;;;;;;;7.07;100.00;96220.00;5058787;28;20227;-71
2022/12/21 09:37:57;;;;;;;10.97;3.63;;;;;;;7.21;100.00;96206.31;5058907;28;20270;-71
2022/12/21 09:40:25;;;;;;;12.30;4.23;;;;;;;7.18;100.00;96209.22;5057971;28;20665;-71
2022/12/21 09:43:02;;;;;;;13.73;5.03;;;;;;;7.22;100.00;96203.53;5059438;28;20200;-71
2022/12/21 09:45:46;;;;;;;22.93;4.10;;;;;;;7.31;100.00;96213.06;5058252;28;20197;-71
2022/12/21 09:48:15;;;;;;;10.07;3.63;;;;;;;7.23;100.00;96206.97;5058073;28;20216;-71
2022/12/21 09:50:45;;;;;;;9.00;4.03;;;;;;;7.16;100.00;96208.56;5058985;28;20639;-71
2022/12/21 09:53:19;;;;;;;16.87;5.63;;;;;;;7.26;100.00;96208.28;5057854;28;20200;-71
2022/12/21 09:55:50;;;;;;;13.13;4.90;;;;;;;7.16;100.00;96208.56;5056901;28;20239;-71
2022/12/21 09:58:22;;;;;;;9.77;4.23;;;;;;;7.28;100.00;96208.16;5058589;28;20224;-71
2022/12/21 10:00:57;;;;;;;9.73;3.73;;;;;;;7.22;100.00;96210.53;5058181;28;20661;-71
2022/12/21 10:03:50;;;;;;;7.87;4.37;;;;;;;7.30;100.00;96209.59;5058206;28;20200;-72
2022/12/21 10:06:30;;;;;;;10.00;4.43;;;;;;;7.30;100.00;96212.22;5058010;28;20295;-72
2022/12/21 10:09:11;;;;;;;12.17;4.20;;;;;;;7.34;100.00;96202.25;5058119;28;20235;-71
2022/12/21 10:11:53;;;;;;;10.87;4.97;;;;;;;7.46;100.00;96201.00;5056676;28;20207;-71
2022/12/21 10:14:35;;;;;;;9.30;4.90;;;;;;;7.41;100.00;96203.28;5058585;28;20196;-71
2022/12/21 10:17:10;;;;;;;12.73;4.87;;;;;;;7.39;100.00;96208.66;5058968;28;20609;-71
2022/12/21 10:19:49;;;;;;;14.23;4.77;;;;;;;7.39;100.00;96206.03;5056219;28;20294;-71
2022/12/21 10:22:23;;;;;;;9.57;4.13;;;;;;;7.32;100.00;96207.66;5055469;28;20965;-71
2022/12/21 10:24:53;;;;;;;8.80;3.70;;;;;;;7.32;100.00;96207.66;5060314;28;20208;-71
2022/12/21 10:27:26;;;;;;;10.33;4.20;;;;;;;7.33;100.00;96203.22;5057822;28;20232;-71
2022/12/21 10:29:57;;;;;;;8.13;4.57;;;;;;;7.29;100.00;96205.38;5057076;28;20201;-71
2022/12/21 10:32:28;;;;;;;6.73;3.83;;;;;;;7.76;100.00;96203.03;5056795;28;20207;-71
2022/12/21 10:34:55;;;;;;;11.57;5.30;;;;;;;7.53;100.00;96191.50;5056629;28;20208;-71
2022/12/21 10:37:23;;;;;;;10.27;5.30;;;;;;;7.48;100.00;96194.59;5056966;28;20208;-71
2022/12/21 10:39:55;;;;;;;12.10;6.07;;;;;;;7.56;100.00;96192.03;5056657;28;20287;-71
2022/12/21 10:42:27;;;;;;;10.40;5.30;;;;;;;7.59;100.00;96201.38;5055911;28;20196;-71
2022/12/21 10:44:54;;;;;;;9.83;4.60;;;;;;;7.47;100.00;96197.38;5055608;28;20197;-71
2022/12/21 10:47:23;;;;;;;8.07;4.70;;;;;;;7.44;100.00;96188.03;5056736;28;20209;-71
2022/12/21 10:49:58;;;;;;;10.63;4.93;;;;;;;7.48;100.00;96185.91;5055120;28;20200;-71
2022/12/21 10:52:36;;;;;;;10.50;4.27;;;;;;;7.47;100.00;96177.25;5056137;28;20208;-72
2022/12/21 10:55:03;;;;;;;11.43;4.23;;;;;;;7.29;100.00;96176.53;5056699;28;20259;-72
2022/12/21 10:57:32;;;;;;;9.83;4.40;;;;;;;7.48;100.00;96172.81;5056887;28;20205;-71
2022/12/21 11:00:05;;;;;;;12.13;4.53;;;;;;;7.57;100.00;96170.03;5057122;28;20288;-71
2022/12/21 11:02:36;;;;;;;12.23;4.17;;;;;;;7.67;100.00;96170.72;5056703;28;20200;-71
2022/12/21 11:05:05;;;;;;;8.73;4.67;;;;;;;7.69;100.00;96165.31;5055291;28;20200;-71
2022/12/21 11:07:31;;;;;;;12.40;4.80;;;;;;;7.64;100.00;96163.19;5056650;28;20216;-72
2022/12/21 11:10:00;;;;;;;8.80;4.00;;;;;;;7.63;100.00;96165.97;5056698;28;20200;-70
2022/12/21 11:12:28;;;;;;;14.43;6.17;;;;;;;7.69;100.00;96160.06;5056455;28;20208;-70
2022/12/21 11:14:56;;;;;;;11.93;5.33;;;;;;;7.64;100.00;96162.38;5055850;28;20204;-70
2022/12/21 11:17:25;;;;;;;9.30;5.10;;;;;;;7.75;100.00;96164.69;5056957;28;20225;-70
2022/12/21 11:20:00;;;;;;;10.70;4.87;;;;;;;7.83;100.00;96167.31;5056580;28;20200;-70
2022/12/21 11:22:30;;;;;;;7.80;4.53;;;;;;;7.89;100.00;96168.31;5056223;28;20731;-70
2022/12/21 11:24:59;;;;;;;12.40;5.00;;;;;;;7.95;100.00;96164.22;5057053;28;20204;-70
2022/12/21 11:27:28;;;;;;;10.67;4.40;;;;;;;7.90;100.00;96164.72;5056666;28;20208;-70
2022/12/21 11:29:57;;;;;;;12.70;4.80;;;;;;;7.98;100.00;96166.50;5056528;28;20196;-70
2022/12/21 11:32:24;;;;;;;15.60;6.97;;;;;;;7.77;100.00;96166.16;5055750;28;20254;-70
2022/12/21 11:34:53;;;;;;;11.43;5.77;;;;;;;7.84;100.00;96167.16;5055942;28;20562;-70
2022/12/21 11:37:27;;;;;;;12.47;5.33;;;;;;;7.91;100.00;96161.09;5055457;28;20220;-70
2022/12/21 11:39:58;;;;;;;12.03;5.17;;;;;;;7.95;100.00;96172.88;5056784;28;20198;-70
2022/12/21 11:42:26;;;;;;;10.03;5.57;;;;;;;7.84;100.00;96168.94;5056502;28;20236;-70
2022/12/21 11:45:21;;;;;;;8.93;4.60;;;;;;;7.89;100.00;96164.84;5055453;28;20200;-70
2022/12/21 11:48:01;;;;;;;14.50;6.20;;;;;;;7.87;100.00;96158.97;5055259;28;20235;-71